CheckWX is a tool to help pilots better visualize weather data.  It is not intended as a substitute for an official pre-flight weather briefing.

00:47:43 UTC

LHPP METAR
Pécs-Pogány Airport
Pécs-Pogány, Hungary
Current

8 hours ago

LHPP 071645Z 34010KT CAVOK 22/08 Q1017
Observed
Jul-7 @ 16:45 UTC
Wind
  • 340° at 10 KTS
Visibility
10,000+ meters
Flight Rules
VFR
Cloud Levels
  • Clear skies
Temperature
22°C / 72°F
Dewpoint
C / 46°F
Humidity
41%
Altimeter
30.03" Hg
Pressure
1016.92 hPa
Previous

9 hours ago

LHPP 071615Z 35011KT CAVOK 22/08 Q1017
Observed
Jul-7 @ 16:15 UTC
Wind
  • 350° at 11 KTS
Visibility
10,000+ meters
Flight Rules
VFR
Cloud Levels
  • Clear skies
Temperature
22°C / 72°F
Dewpoint
C / 46°F
Humidity
41%
Altimeter
30.03" Hg
Pressure
1016.92 hPa
Previous

9 hours ago

LHPP 071545Z 35012KT CAVOK 22/08 Q1017
Observed
Jul-7 @ 15:45 UTC
Wind
  • 350° at 12 KTS
Visibility
10,000+ meters
Flight Rules
VFR
Cloud Levels
  • Clear skies
Temperature
22°C / 72°F
Dewpoint
C / 46°F
Humidity
41%
Altimeter
30.03" Hg
Pressure
1016.92 hPa